Time;durP1;ratioP1;P1;durP2;ratioP2;P2;SDS_P1;SDS_P2;PMS_P1;PMS_P2;Temp;Humidity;BMP_temperature;BMP_pressure;BME280_temperature;BME280_humidity;BME280_pressure;Samples;Min_cycle;Max_cycle;Signal;HPM_P1;HPM_P2
2023/07/28 00:01:35;;;;;;;0.00;0.00;;;18.40;99.90;;;;;;5034462;28;20065;-55
2023/07/28 00:04:02;;;;;;;0.00;0.00;;;18.40;99.90;;;;;;5038288;28;20033;-54
2023/07/28 00:06:28;;;;;;;0.00;0.00;;;18.40;99.90;;;;;;5031392;28;20111;-55
2023/07/28 00:08:53;;;;;;;0.00;0.00;;;18.30;99.90;;;;;;5034127;28;20033;-55
2023/07/28 00:11:19;;;;;;;0.00;0.00;;;18.40;99.90;;;;;;5029093;28;20109;-55
2023/07/28 00:13:44;;;;;;;0.00;0.00;;;18.40;99.90;;;;;;5035342;28;20029;-55
2023/07/28 00:16:10;;;;;;;0.00;0.00;;;18.40;99.90;;;;;;5042452;28;20041;-55
2023/07/28 00:18:36;;;;;;;0.00;0.00;;;18.40;99.90;;;;;;5043456;28;20041;-55
2023/07/28 00:21:04;;;;;;;0.00;0.00;;;18.30;99.90;;;;;;5043773;28;20033;-53
2023/07/28 00:23:29;;;;;;;0.00;0.00;;;18.30;99.90;;;;;;5038004;28;20068;-55
2023/07/28 00:25:55;;;;;;;0.00;0.00;;;18.40;99.90;;;;;;5039883;28;20485;-55
2023/07/28 00:28:21;;;;;;;0.00;0.00;;;18.30;99.90;;;;;;5030854;28;20030;-55
2023/07/28 00:30:50;;;;;;;0.00;0.00;;;18.30;99.90;;;;;;5045474;28;20067;-55
2023/07/28 00:33:16;;;;;;;0.00;0.00;;;18.40;99.90;;;;;;5034307;28;20034;-55
2023/07/28 00:35:41;;;;;;;0.00;0.00;;;18.40;99.90;;;;;;5044777;28;20116;-54
2023/07/28 00:38:08;;;;;;;0.00;0.00;;;18.50;99.90;;;;;;5041413;28;20124;-55
2023/07/28 00:40:35;;;;;;;0.00;0.00;;;18.60;99.90;;;;;;5038145;28;20030;-55
2023/07/28 00:43:01;;;;;;;0.00;0.00;;;18.40;99.90;;;;;;5044980;28;20043;-56
2023/07/28 00:45:27;;;;;;;0.00;0.00;;;18.40;99.90;;;;;;5041236;28;20485;-54
2023/07/28 00:47:53;;;;;;;0.00;0.00;;;18.40;99.90;;;;;;5042250;28;20048;-56
2023/07/28 00:50:19;;;;;;;0.00;0.00;;;18.40;99.90;;;;;;5046663;28;20033;-55
2023/07/28 00:52:46;;;;;;;0.00;0.00;;;18.40;99.90;;;;;;5040192;28;20041;-55
2023/07/28 00:55:12;;;;;;;0.00;0.00;;;18.50;99.90;;;;;;5042906;28;20121;-55
2023/07/28 00:57:39;;;;;;;0.00;0.00;;;18.50;99.90;;;;;;5041909;28;20136;-55
2023/07/28 01:00:05;;;;;;;0.00;0.00;;;18.30;99.90;;;;;;5042577;28;20498;-55
2023/07/28 01:02:31;;;;;;;0.00;0.00;;;18.40;99.90;;;;;;5044552;28;20036;-54
2023/07/28 01:04:57;;;;;;;0.00;0.00;;;18.40;99.90;;;;;;5032945;28;20401;-54
2023/07/28 01:07:30;;;;;;;0.00;0.00;;;18.40;99.90;;;;;;5041516;28;20492;-54
2023/07/28 01:10:32;;;;;;;0.00;0.00;;;18.40;99.90;;;;;;5041602;28;20064;-55
2023/07/28 01:12:58;;;;;;;0.00;0.00;;;18.40;99.90;;;;;;4981522;28;20045;-56
2023/07/28 01:15:24;;;;;;;0.00;0.00;;;18.50;99.90;;;;;;5027583;28;20033;-55
2023/07/28 01:17:50;;;;;;;0.00;0.00;;;18.30;99.90;;;;;;5044291;28;20040;-56
2023/07/28 01:20:16;;;;;;;0.00;0.00;;;18.30;99.90;;;;;;5039007;28;20640;-55
2023/07/28 01:23:19;;;;;;;0.00;0.00;;;18.30;99.90;;;;;;5038904;28;20040;-55
2023/07/28 01:26:10;;;;;;;0.00;0.00;;;18.30;99.90;;;;;;5022220;28;20109;-55
2023/07/28 01:28:37;;;;;;;0.00;0.00;;;18.40;99.90;;;;;;5040726;28;20539;-55
2023/07/28 01:31:06;;;;;;;0.00;0.00;;;18.40;99.90;;;;;;5040008;28;20472;-56
2023/07/28 01:33:32;;;;;;;0.00;0.00;;;18.30;99.90;;;;;;5040845;28;20798;-56
2023/07/28 01:36:01;;;;;;;0.00;0.00;;;18.40;99.90;;;;;;5040014;28;20033;-55
2023/07/28 01:38:30;;;;;;;0.00;0.00;;;18.50;99.90;;;;;;5037109;28;20025;-55
2023/07/28 01:40:55;;;;;;;0.00;0.00;;;18.50;99.90;;;;;;5040868;28;20103;-55
2023/07/28 01:43:21;;;;;;;0.00;0.00;;;18.50;99.90;;;;;;5042003;28;20242;-55
2023/07/28 01:45:47;;;;;;;0.00;0.00;;;18.50;99.90;;;;;;5042903;28;20538;-55
2023/07/28 01:48:12;;;;;;;0.00;0.00;;;18.50;99.90;;;;;;5041267;28;20045;-55
2023/07/28 01:50:38;;;;;;;0.00;0.00;;;18.50;99.90;;;;;;5041669;28;20045;-57
2023/07/28 01:53:05;;;;;;;0.00;0.00;;;18.50;99.90;;;;;;5034891;28;20060;-56
2023/07/28 01:55:31;;;;;;;0.00;0.00;;;18.60;99.90;;;;;;5033582;28;20036;-56
2023/07/28 01:57:58;;;;;;;0.00;0.00;;;18.60;99.90;;;;;;5042379;28;20059;-54
2023/07/28 02:00:24;;;;;;;0.00;0.00;;;18.60;99.90;;;;;;5044119;28;20508;-55
2023/07/28 02:02:51;;;;;;;0.00;0.00;;;18.50;99.90;;;;;;5042520;28;20033;-56
2023/07/28 02:05:17;;;;;;;0.00;0.00;;;18.50;99.90;;;;;;5036052;28;20488;-55
2023/07/28 02:07:43;;;;;;;0.00;0.00;;;18.50;99.90;;;;;;5041912;28;20053;-55
2023/07/28 02:10:10;;;;;;;0.00;0.00;;;18.50;99.90;;;;;;5034105;28;20061;-56
2023/07/28 02:12:39;;;;;;;0.00;0.00;;;18.60;99.90;;;;;;5029689;28;20065;-56
2023/07/28 02:15:06;;;;;;;0.00;0.00;;;18.50;99.90;;;;;;5042633;28;20639;-55
2023/07/28 02:17:32;;;;;;;0.00;0.00;;;18.50;99.90;;;;;;5032693;28;20075;-55
2023/07/28 02:19:57;;;;;;;0.00;0.00;;;18.50;99.90;;;;;;5036345;28;20045;-56
2023/07/28 02:22:23;;;;;;;0.00;0.00;;;18.50;99.90;;;;;;5041362;28;20492;-56
2023/07/28 02:24:48;;;;;;;0.00;0.00;;;18.50;99.90;;;;;;5042566;28;20541;-54
2023/07/28 02:27:14;;;;;;;0.00;0.00;;;18.50;99.90;;;;;;5037463;28;20022;-55
2023/07/28 02:29:39;;;;;;;0.00;0.00;;;18.60;99.90;;;;;;5035507;28;20697;-56
2023/07/28 02:32:05;;;;;;;0.00;0.00;;;18.60;99.90;;;;;;5039269;28;20032;-54
2023/07/28 02:34:31;;;;;;;0.00;0.00;;;18.50;99.90;;;;;;5041794;28;20090;-55
2023/07/28 02:36:57;;;;;;;0.00;0.00;;;18.60;99.90;;;;;;5044286;28;20029;-55
2023/07/28 02:39:23;;;;;;;0.00;0.00;;;18.60;99.90;;;;;;5041263;28;20024;-56
2023/07/28 02:41:48;;;;;;;0.00;0.00;;;18.60;99.90;;;;;;5038569;28;20030;-56
2023/07/28 02:44:14;;;;;;;0.00;0.00;;;18.60;99.90;;;;;;5037903;28;20112;-55
2023/07/28 02:46:39;;;;;;;0.00;0.00;;;18.60;99.90;;;;;;5036569;28;20497;-55
2023/07/28 02:49:05;;;;;;;0.00;0.00;;;18.50;99.90;;;;;;5038219;28;20036;-53
2023/07/28 02:51:31;;;;;;;0.00;0.00;;;18.40;99.90;;;;;;5032179;28;20036;-54
2023/07/28 02:53:56;;;;;;;0.00;0.00;;;18.40;99.90;;;;;;5036128;28;20053;-55
2023/07/28 02:56:22;;;;;;;0.00;0.00;;;18.40;99.90;;;;;;5039976;28;20072;-55
2023/07/28 02:58:48;;;;;;;0.00;0.00;;;18.50;99.90;;;;;;5039222;28;20452;-56
2023/07/28 03:01:14;;;;;;;0.00;0.00;;;18.50;99.90;;;;;;5039750;28;20491;-55
2023/07/28 03:03:40;;;;;;;0.00;0.00;;;18.60;99.90;;;;;;5039774;28;20052;-55
2023/07/28 03:06:06;;;;;;;0.00;0.00;;;18.70;99.90;;;;;;5035000;28;20025;-56
2023/07/28 03:08:31;;;;;;;0.00;0.00;;;18.60;99.90;;;;;;5037464;28;20069;-56
2023/07/28 03:10:58;;;;;;;0.00;0.00;;;18.60;99.90;;;;;;5039916;28;20029;-54
2023/07/28 03:13:24;;;;;;;0.00;0.00;;;18.70;99.90;;;;;;5042385;28;20032;-54
2023/07/28 03:15:49;;;;;;;0.00;0.00;;;18.60;99.90;;;;;;5037673;28;20049;-56
2023/07/28 03:18:15;;;;;;;0.00;0.00;;;18.60;99.90;;;;;;5037152;28;20037;-55
2023/07/28 03:20:41;;;;;;;0.00;0.00;;;18.70;99.90;;;;;;5039840;28;20032;-56
2023/07/28 03:23:06;;;;;;;0.00;0.00;;;18.60;99.90;;;;;;5036289;28;20572;-55
2023/07/28 03:25:32;;;;;;;0.00;0.00;;;18.70;99.90;;;;;;5034397;28;20596;-55
2023/07/28 03:27:58;;;;;;;0.00;0.00;;;18.70;99.90;;;;;;5041118;28;20037;-55
2023/07/28 03:30:24;;;;;;;0.00;0.00;;;18.60;99.90;;;;;;5035133;28;20113;-55
2023/07/28 03:32:49;;;;;;;0.00;0.00;;;18.60;99.90;;;;;;5034754;28;20116;-54
2023/07/28 03:35:15;;;;;;;0.00;0.00;;;18.70;99.90;;;;;;5038217;28;20106;-56
2023/07/28 03:37:40;;;;;;;0.00;0.00;;;18.70;99.90;;;;;;5037197;28;20033;-56
2023/07/28 03:40:07;;;;;;;0.00;0.00;;;18.70;99.90;;;;;;5043362;28;20033;-56
2023/07/28 03:42:32;;;;;;;0.00;0.00;;;18.60;99.90;;;;;;5036382;28;20057;-55
2023/07/28 03:44:58;;;;;;;0.00;0.00;;;18.70;99.90;;;;;;5039109;28;20053;-56
2023/07/28 03:47:23;;;;;;;0.00;0.00;;;18.70;99.90;;;;;;5037832;28;20105;-54
2023/07/28 03:49:49;;;;;;;0.00;0.00;;;18.60;99.90;;;;;;5036712;28;20033;-56
2023/07/28 03:52:15;;;;;;;0.00;0.00;;;18.80;99.90;;;;;;5036316;28;20629;-56
2023/07/28 03:54:40;;;;;;;0.00;0.00;;;18.80;99.90;;;;;;5042309;28;20035;-56
2023/07/28 03:57:06;;;;;;;0.00;0.00;;;18.80;99.90;;;;;;5043284;28;20481;-54
2023/07/28 03:59:32;;;;;;;0.00;0.00;;;18.80;99.90;;;;;;5038616;28;20057;-56
2023/07/28 04:01:58;;;;;;;0.00;0.00;;;18.90;99.90;;;;;;5046982;28;20072;-56
2023/07/28 04:04:23;;;;;;;0.00;0.00;;;18.90;99.90;;;;;;5045902;28;20103;-55
2023/07/28 04:06:55;;;;;;;0.00;0.00;;;18.90;99.90;;;;;;5042871;28;20666;-56
2023/07/28 04:09:21;;;;;;;0.00;0.00;;;18.80;99.90;;;;;;5040755;28;20641;-55
2023/07/28 04:11:47;;;;;;;0.00;0.00;;;18.80;99.90;;;;;;5039169;28;20120;-56
2023/07/28 04:14:14;;;;;;;0.00;0.00;;;18.70;99.90;;;;;;5046322;28;20512;-56
2023/07/28 04:16:40;;;;;;;0.00;0.00;;;18.80;99.90;;;;;;5044330;28;20073;-56
2023/07/28 04:19:06;;;;;;;0.00;0.00;;;18.70;99.90;;;;;;5037409;28;20710;-54
2023/07/28 04:21:31;;;;;;;0.00;0.00;;;18.70;99.90;;;;;;5040905;28;20037;-56
2023/07/28 04:23:57;;;;;;;0.00;0.00;;;18.80;99.90;;;;;;5038148;28;20029;-54
2023/07/28 04:26:24;;;;;;;0.00;0.00;;;18.70;99.90;;;;;;5041217;28;20120;-54
2023/07/28 04:28:50;;;;;;;0.00;0.00;;;18.70;99.90;;;;;;5036126;28;20423;-56
2023/07/28 04:31:15;;;;;;;0.00;0.00;;;18.80;99.90;;;;;;5039674;28;20041;-56
2023/07/28 04:33:42;;;;;;;0.00;0.00;;;18.70;99.90;;;;;;5039344;28;20128;-55
2023/07/28 04:36:07;;;;;;;0.00;0.00;;;18.80;99.90;;;;;;5044065;28;20036;-56
2023/07/28 04:38:33;;;;;;;0.00;0.00;;;18.80;99.90;;;;;;5035089;28;20045;-56
2023/07/28 04:40:59;;;;;;;0.00;0.00;;;18.80;99.90;;;;;;5044474;28;20513;-54
2023/07/28 04:43:24;;;;;;;0.00;0.00;;;19.00;99.90;;;;;;5043866;28;20063;-55
2023/07/28 04:45:50;;;;;;;0.00;0.00;;;18.90;99.90;;;;;;5038173;28;20718;-55
2023/07/28 04:48:15;;;;;;;0.00;0.00;;;18.80;99.90;;;;;;5041190;28;20045;-56
2023/07/28 04:50:41;;;;;;;0.00;0.00;;;18.80;99.90;;;;;;5042016;28;20042;-54
2023/07/28 04:53:07;;;;;;;0.00;0.00;;;18.60;99.90;;;;;;5038066;28;20041;-57
2023/07/28 04:55:32;;;;;;;0.00;0.00;;;18.60;99.90;;;;;;5039166;28;20041;-55
2023/07/28 04:57:58;;;;;;;0.00;0.00;;;18.90;99.90;;;;;;5040568;28;20035;-56
2023/07/28 05:00:23;;;;;;;0.00;0.00;;;18.90;99.90;;;;;;5042568;28;20024;-56
2023/07/28 05:02:49;;;;;;;0.00;0.00;;;19.10;99.90;;;;;;5036507;28;20025;-56
2023/07/28 05:05:15;;;;;;;0.00;0.00;;;19.20;99.90;;;;;;5041115;28;20029;-55
2023/07/28 05:07:41;;;;;;;0.00;0.00;;;19.20;99.90;;;;;;5037114;28;20033;-55
2023/07/28 05:10:08;;;;;;;0.00;0.00;;;19.10;99.90;;;;;;5036717;28;20048;-53
2023/07/28 05:12:33;;;;;;;0.00;0.00;;;19.00;99.90;;;;;;5035294;28;20404;-55
2023/07/28 05:14:59;;;;;;;0.00;0.00;;;19.00;99.90;;;;;;5045450;28;20123;-55
2023/07/28 05:17:25;;;;;;;0.00;0.00;;;19.10;99.90;;;;;;5043692;28;20102;-56
2023/07/28 05:19:50;;;;;;;0.00;0.00;;;19.10;99.90;;;;;;5038355;28;20037;-55
2023/07/28 05:22:16;;;;;;;0.00;0.00;;;19.10;99.90;;;;;;5043632;28;20135;-54
2023/07/28 05:24:43;;;;;;;0.00;0.00;;;19.10;99.90;;;;;;5034493;28;20496;-56
2023/07/28 05:27:09;;;;;;;0.00;0.00;;;19.20;99.90;;;;;;5037216;28;20420;-55
2023/07/28 05:29:35;;;;;;;0.00;0.00;;;19.30;99.90;;;;;;5038492;28;20029;-55
2023/07/28 05:32:00;;;;;;;0.00;0.00;;;19.00;99.90;;;;;;5044104;28;20095;-56
2023/07/28 05:34:26;;;;;;;0.00;0.00;;;19.00;99.90;;;;;;5042685;28;20037;-56
2023/07/28 05:36:52;;;;;;;0.00;0.00;;;19.20;99.90;;;;;;5039370;28;20082;-55
2023/07/28 05:39:17;;;;;;;0.00;0.00;;;19.20;99.90;;;;;;5040405;28;20037;-55
2023/07/28 05:41:43;;;;;;;0.00;0.00;;;19.30;99.90;;;;;;5040749;28;20053;-55
2023/07/28 05:44:08;;;;;;;0.00;0.00;;;19.20;99.90;;;;;;5037875;28;20120;-56
2023/07/28 05:46:34;;;;;;;0.00;0.00;;;19.30;99.90;;;;;;5032571;28;20049;-55
2023/07/28 05:49:00;;;;;;;0.00;0.00;;;19.30;99.90;;;;;;5024832;28;20091;-56
2023/07/28 05:51:25;;;;;;;0.00;0.00;;;19.30;99.90;;;;;;5038551;28;20103;-56
2023/07/28 05:53:51;;;;;;;0.00;0.00;;;19.30;99.90;;;;;;5036449;28;20037;-56
2023/07/28 05:56:18;;;;;;;0.00;0.00;;;19.20;99.90;;;;;;5040219;28;20033;-54
2023/07/28 05:58:45;;;;;;;0.00;0.00;;;19.20;99.90;;;;;;5033989;28;20414;-55
2023/07/28 06:01:10;;;;;;;0.00;0.00;;;19.40;99.90;;;;;;5037479;28;20370;-55
2023/07/28 06:03:36;;;;;;;0.00;0.00;;;19.40;99.90;;;;;;5042221;28;20041;-56
2023/07/28 06:06:02;;;;;;;0.00;0.00;;;19.40;99.90;;;;;;5035845;28;20048;-53
2023/07/28 06:08:28;;;;;;;0.00;0.00;;;19.40;99.90;;;;;;5039331;28;20119;-54
2023/07/28 06:10:54;;;;;;;0.00;0.00;;;19.30;99.90;;;;;;5032862;28;20037;-55
2023/07/28 06:13:19;;;;;;;0.00;0.00;;;19.40;99.90;;;;;;5036427;28;20116;-56
2023/07/28 06:15:45;;;;;;;0.00;0.00;;;19.40;99.90;;;;;;5034823;28;20068;-53
2023/07/28 06:18:11;;;;;;;0.00;0.00;;;19.40;99.90;;;;;;5043742;28;20028;-54
2023/07/28 06:20:36;;;;;;;0.00;0.00;;;19.50;99.90;;;;;;5040633;28;20529;-54
2023/07/28 06:23:02;;;;;;;0.00;0.00;;;19.50;99.90;;;;;;5038987;28;20037;-54
2023/07/28 06:25:28;;;;;;;0.00;0.00;;;19.50;99.90;;;;;;5040285;28;20048;-54
2023/07/28 06:27:53;;;;;;;0.00;0.00;;;19.50;99.90;;;;;;5039757;28;20457;-55
2023/07/28 06:30:19;;;;;;;0.00;0.00;;;19.50;99.90;;;;;;5042748;28;20037;-53
2023/07/28 06:32:44;;;;;;;0.00;0.00;;;19.50;99.90;;;;;;5043441;28;20095;-55
2023/07/28 06:35:10;;;;;;;0.00;0.00;;;19.50;99.90;;;;;;5038107;28;20059;-54
2023/07/28 06:37:37;;;;;;;0.00;0.00;;;19.60;99.90;;;;;;5040870;28;20645;-55
2023/07/28 06:40:05;;;;;;;0.00;0.00;;;19.60;99.90;;;;;;5032111;28;20043;-54
2023/07/28 06:42:33;;;;;;;0.00;0.00;;;19.60;99.90;;;;;;5030460;28;20507;-53
2023/07/28 06:44:58;;;;;;;0.00;0.00;;;19.60;99.90;;;;;;5040210;28;20033;-55
2023/07/28 06:47:24;;;;;;;0.00;0.00;;;19.60;99.90;;;;;;5041097;28;20095;-53
2023/07/28 06:49:49;;;;;;;0.00;0.00;;;19.60;99.90;;;;;;5041379;28;20040;-54
2023/07/28 06:52:15;;;;;;;0.00;0.00;;;19.60;99.90;;;;;;5038251;28;20051;-58
2023/07/28 06:54:40;;;;;;;0.00;0.00;;;19.60;99.90;;;;;;5034942;28;20428;-54
2023/07/28 06:57:06;;;;;;;0.00;0.00;;;19.60;99.90;;;;;;5036145;28;20025;-55
2023/07/28 06:59:32;;;;;;;0.00;0.00;;;19.40;99.90;;;;;;5039353;28;20041;-53
2023/07/28 07:01:58;;;;;;;0.00;0.00;;;19.50;99.90;;;;;;5038564;28;20025;-54
2023/07/28 07:04:23;;;;;;;0.00;0.00;;;19.50;99.90;;;;;;5037755;28;20500;-53
2023/07/28 07:06:49;;;;;;;0.00;0.00;;;19.60;99.90;;;;;;5035814;28;20042;-55
2023/07/28 07:09:14;;;;;;;0.00;0.00;;;19.70;99.90;;;;;;5031231;28;20068;-54
2023/07/28 07:11:41;;;;;;;0.00;0.00;;;19.60;99.90;;;;;;5038690;28;20033;-55
2023/07/28 07:14:07;;;;;;;0.00;0.00;;;19.70;99.90;;;;;;5037337;28;20094;-55
2023/07/28 07:16:33;;;;;;;0.00;0.00;;;19.70;99.90;;;;;;5038668;28;20036;-50
2023/07/28 07:18:59;;;;;;;0.00;0.00;;;19.80;99.90;;;;;;5042634;28;20029;-54
2023/07/28 07:21:26;;;;;;;0.00;0.00;;;19.80;99.90;;;;;;5033219;28;20996;-54
2023/07/28 07:23:51;;;;;;;2.28;2.10;;;19.90;99.90;;;;;;5042850;28;20041;-55
2023/07/28 07:26:17;;;;;;;5.97;5.38;;;19.90;99.90;;;;;;5039230;28;20156;-54
2023/07/28 07:28:43;;;;;;;0.00;0.00;;;20.00;99.90;;;;;;5041073;28;20094;-53
2023/07/28 07:31:13;;;;;;;0.00;0.00;;;20.10;99.90;;;;;;5039041;28;20047;-53
2023/07/28 07:33:39;;;;;;;0.00;0.00;;;20.10;99.90;;;;;;5037696;28;20052;-55
2023/07/28 07:36:05;;;;;;;0.00;0.00;;;20.20;99.90;;;;;;5033427;28;20040;-54
2023/07/28 07:38:30;;;;;;;0.00;0.00;;;20.20;99.90;;;;;;5039455;28;20040;-53
2023/07/28 07:40:56;;;;;;;0.00;0.00;;;20.30;99.90;;;;;;5032339;28;20029;-52
2023/07/28 07:43:21;;;;;;;0.00;0.00;;;20.20;99.90;;;;;;5034179;28;20045;-54
2023/07/28 07:45:49;;;;;;;0.00;0.00;;;20.20;99.90;;;;;;5034984;28;20116;-55
2023/07/28 07:48:15;;;;;;;0.00;0.00;;;20.30;99.90;;;;;;5039807;28;20555;-55
2023/07/28 07:50:41;;;;;;;0.00;0.00;;;20.30;99.90;;;;;;5041707;28;20029;-53
2023/07/28 07:53:06;;;;;;;0.00;0.00;;;20.40;99.90;;;;;;5038558;28;20453;-54
2023/07/28 07:55:32;;;;;;;0.00;0.00;;;20.30;99.90;;;;;;5038004;28;20120;-54
2023/07/28 07:57:58;;;;;;;0.00;0.00;;;20.30;99.90;;;;;;5038916;28;20386;-54
2023/07/28 08:00:23;;;;;;;0.00;0.00;;;20.20;99.90;;;;;;5037455;28;20084;-53
2023/07/28 08:02:49;;;;;;;0.00;0.00;;;20.20;99.90;;;;;;5037799;28;20505;-54
2023/07/28 08:05:15;;;;;;;0.00;0.00;;;20.30;99.90;;;;;;5038802;28;20128;-54
2023/07/28 08:07:41;;;;;;;0.00;0.00;;;20.40;99.90;;;;;;5037884;28;20129;-53
2023/07/28 08:10:07;;;;;;;0.00;0.00;;;20.50;99.90;;;;;;5035204;28;20064;-54
2023/07/28 08:12:33;;;;;;;0.00;0.00;;;20.50;99.90;;;;;;5034707;28;20066;-54
2023/07/28 08:14:59;;;;;;;0.00;0.00;;;20.40;99.90;;;;;;5039946;28;20029;-54
2023/07/28 08:17:24;;;;;;;0.00;0.00;;;20.10;99.90;;;;;;5038767;28;20033;-54
2023/07/28 08:19:50;;;;;;;0.00;0.00;;;20.20;99.90;;;;;;5040043;28;20029;-53
2023/07/28 08:22:16;;;;;;;0.00;0.00;;;20.40;99.90;;;;;;5026770;28;20041;-54
2023/07/28 08:24:41;;;;;;;0.00;0.00;;;20.50;99.90;;;;;;5036048;28;20172;-55
2023/07/28 08:27:07;;;;;;;0.00;0.00;;;20.60;99.90;;;;;;5039486;28;20117;-54
2023/07/28 08:29:32;;;;;;;0.00;0.00;;;20.50;99.90;;;;;;5039092;28;20025;-55
2023/07/28 08:31:58;;;;;;;0.00;0.00;;;20.50;99.90;;;;;;5039571;28;20079;-54
2023/07/28 08:34:23;;;;;;;0.00;0.00;;;20.40;99.90;;;;;;5038298;28;20044;-54
2023/07/28 08:36:49;;;;;;;0.00;0.00;;;20.40;99.90;;;;;;5037420;28;20041;-53
2023/07/28 08:39:15;;;;;;;0.00;0.00;;;20.30;99.90;;;;;;5031049;28;20051;-53
2023/07/28 08:41:41;;;;;;;0.00;0.00;;;20.40;99.90;;;;;;5046001;28;20208;-55
2023/07/28 08:44:07;;;;;;;0.00;0.00;;;20.40;99.90;;;;;;5044934;28;20041;-55
2023/07/28 08:46:34;;;;;;;0.00;0.00;;;20.20;99.90;;;;;;5044056;28;20112;-53
2023/07/28 08:49:00;;;;;;;0.00;0.00;;;20.20;99.90;;;;;;5035935;28;20602;-55
2023/07/28 08:51:26;;;;;;;0.00;0.00;;;20.10;99.90;;;;;;5041695;28;20033;-54
2023/07/28 08:53:52;;;;;;;0.00;0.00;;;20.20;99.90;;;;;;5036362;28;20052;-53
2023/07/28 08:56:18;;;;;;;0.00;0.00;;;20.30;99.90;;;;;;5037677;28;20124;-55
2023/07/28 08:58:44;;;;;;;0.00;0.00;;;20.40;99.90;;;;;;5038258;28;20049;-54
2023/07/28 09:01:11;;;;;;;0.00;0.00;;;20.50;99.90;;;;;;5038110;28;20731;-55
2023/07/28 09:03:41;;;;;;;0.00;0.00;;;20.60;99.90;;;;;;5044243;28;20646;-55
2023/07/28 09:06:10;;;;;;;0.00;0.00;;;20.60;99.90;;;;;;5043660;28;20032;-54
2023/07/28 09:08:37;;;;;;;0.00;0.00;;;20.70;99.90;;;;;;5039002;28;20533;-55
2023/07/28 09:11:05;;;;;;;0.00;0.00;;;20.60;99.90;;;;;;5031542;28;20073;-55
2023/07/28 09:13:41;;;;;;;0.00;0.00;;;20.70;99.90;;;;;;5042035;28;20041;-55
2023/07/28 09:16:17;;;;;;;0.00;0.00;;;20.60;99.90;;;;;;5041283;28;20033;-53
2023/07/28 09:18:43;;;;;;;0.00;0.00;;;20.80;99.90;;;;;;5044919;28;20496;-55
2023/07/28 09:21:17;;;;;;;0.00;0.00;;;20.80;99.90;;;;;;5041610;28;20036;-55
2023/07/28 09:23:43;;;;;;;0.00;0.00;;;20.90;99.90;;;;;;5033357;28;20142;-55
2023/07/28 09:26:09;;;;;;;0.00;0.00;;;21.00;99.90;;;;;;5043644;28;20090;-54
2023/07/28 09:28:39;;;;;;;0.00;0.00;;;21.00;99.90;;;;;;5040742;28;20044;-52
2023/07/28 09:31:05;;;;;;;0.00;0.00;;;20.90;99.90;;;;;;5040578;28;20476;-52
2023/07/28 09:33:33;;;;;;;0.00;0.00;;;20.80;99.90;;;;;;5039056;28;20041;-54
2023/07/28 09:36:12;;;;;;;0.00;0.00;;;20.90;99.90;;;;;;5039618;28;20064;-55
2023/07/28 09:38:41;;;;;;;0.00;0.00;;;20.90;99.90;;;;;;5042103;28;20476;-54
2023/07/28 09:41:10;;;;;;;1.65;1.20;;;21.00;99.90;;;;;;5038439;28;20109;-55
2023/07/28 09:43:40;;;;;;;2.33;1.40;;;21.20;99.90;;;;;;5030844;28;20155;-54
2023/07/28 09:46:10;;;;;;;4.78;2.92;;;21.20;99.90;;;;;;5041509;28;20396;-53
2023/07/28 09:48:38;;;;;;;4.50;3.38;;;21.30;99.90;;;;;;5045746;28;20033;-54
2023/07/28 09:51:09;;;;;;;5.97;3.55;;;21.40;99.90;;;;;;5043197;28;20041;-54
2023/07/28 09:53:42;;;;;;;4.72;3.78;;;21.50;99.90;;;;;;5045480;28;20087;-54
2023/07/28 09:56:09;;;;;;;4.93;3.70;;;21.50;99.90;;;;;;5035058;28;20052;-54
2023/07/28 09:58:38;;;;;;;4.18;3.40;;;21.60;99.90;;;;;;5043725;28;20189;-54
2023/07/28 10:01:05;;;;;;;7.13;3.70;;;21.60;99.90;;;;;;5044955;28;20043;-54
2023/07/28 10:03:32;;;;;;;5.47;3.38;;;21.50;99.90;;;;;;5044352;28;20041;-53
2023/07/28 10:05:59;;;;;;;6.50;4.25;;;21.40;99.90;;;;;;5035834;28;20036;-55
2023/07/28 10:08:25;;;;;;;4.82;4.20;;;21.40;99.90;;;;;;5038570;28;20115;-54
2023/07/28 10:10:52;;;;;;;3.60;3.20;;;21.50;99.90;;;;;;5044600;28;20053;-55
2023/07/28 10:13:21;;;;;;;5.10;3.83;;;21.60;99.90;;;;;;5039261;28;20033;-54
2023/07/28 10:15:48;;;;;;;4.60;2.08;;;21.80;99.90;;;;;;5037474;28;20033;-55
2023/07/28 10:18:14;;;;;;;0.00;0.00;;;22.10;99.90;;;;;;5043136;28;20033;-53
2023/07/28 10:20:43;;;;;;;0.00;0.00;;;22.10;99.90;;;;;;5039802;28;20044;-54
2023/07/28 10:23:22;;;;;;;0.00;0.00;;;22.10;99.90;;;;;;5042219;28;20072;-53
2023/07/28 10:25:57;;;;;;;0.00;0.00;;;22.20;99.90;;;;;;5040680;28;20148;-52
2023/07/28 10:28:38;;;;;;;0.00;0.00;;;22.20;99.90;;;;;;5045194;28;20648;-53
2023/07/28 10:31:08;;;;;;;0.00;0.00;;;22.60;99.90;;;;;;5040407;28;20040;-54
2023/07/28 10:33:35;;;;;;;0.00;0.00;;;22.70;99.90;;;;;;5034792;28;20037;-53
2023/07/28 10:36:17;;;;;;;0.00;0.00;;;22.60;99.90;;;;;;5043151;28;20037;-53
2023/07/28 10:38:43;;;;;;;0.00;0.00;;;22.50;99.90;;;;;;5027766;28;20441;-53
2023/07/28 10:41:17;;;;;;;0.00;0.00;;;22.50;99.90;;;;;;5022285;28;20075;-51
2023/07/28 10:43:44;;;;;;;0.00;0.00;;;22.50;99.90;;;;;;5021650;28;20160;-53
2023/07/28 10:46:13;;;;;;;0.00;0.00;;;22.40;99.90;;;;;;5023139;28;20049;-52
2023/07/28 10:48:46;;;;;;;0.00;0.00;;;22.40;99.90;;;;;;5042447;28;20037;-53
2023/07/28 10:51:19;;;;;;;0.00;0.00;;;22.40;99.90;;;;;;5037661;28;20029;-53
2023/07/28 10:53:45;;;;;;;0.00;0.00;;;22.30;99.90;;;;;;5039614;28;20059;-54
2023/07/28 10:56:11;;;;;;;0.00;0.00;;;22.40;99.90;;;;;;5040672;28;20049;-53
2023/07/28 10:58:37;;;;;;;0.00;0.00;;;22.60;99.90;;;;;;5040860;28;20542;-53
2023/07/28 11:01:03;;;;;;;0.00;0.00;;;22.60;99.90;;;;;;5041266;28;20045;-54
2023/07/28 11:03:29;;;;;;;0.00;0.00;;;22.60;99.90;;;;;;5038337;28;20059;-53
2023/07/28 11:05:56;;;;;;;0.00;0.00;;;22.40;99.90;;;;;;5038540;28;20086;-52
2023/07/28 11:08:22;;;;;;;0.00;0.00;;;22.30;99.90;;;;;;5043039;28;20117;-54
2023/07/28 11:10:48;;;;;;;0.00;0.00;;;22.20;99.90;;;;;;5043304;28;20416;-56
2023/07/28 11:13:13;;;;;;;0.00;0.00;;;22.10;99.90;;;;;;5032513;28;20037;-54
2023/07/28 11:15:39;;;;;;;0.00;0.00;;;22.20;99.90;;;;;;5043594;28;20033;-53
2023/07/28 11:18:05;;;;;;;0.00;0.00;;;22.20;99.90;;;;;;5043491;28;20033;-54
2023/07/28 11:20:30;;;;;;;0.00;0.00;;;22.40;99.90;;;;;;5044559;28;20087;-53
2023/07/28 11:23:03;;;;;;;0.00;0.00;;;22.50;99.90;;;;;;5038807;28;20041;-53
2023/07/28 11:25:30;;;;;;;0.00;0.00;;;22.40;99.90;;;;;;5043227;28;20497;-55
2023/07/28 11:27:56;;;;;;;0.00;0.00;;;22.50;99.90;;;;;;5037844;28;20091;-54
2023/07/28 11:30:23;;;;;;;0.00;0.00;;;22.50;99.90;;;;;;5040513;28;20590;-55
2023/07/28 11:32:51;;;;;;;0.00;0.00;;;22.60;99.90;;;;;;5039908;28;20127;-53
2023/07/28 11:35:19;;;;;;;0.00;0.00;;;22.80;99.90;;;;;;5041195;28;20676;-55
2023/07/28 11:37:50;;;;;;;0.00;0.00;;;23.00;99.90;;;;;;5041218;28;20029;-53
2023/07/28 11:40:18;;;;;;;0.00;0.00;;;23.00;99.90;;;;;;5037470;28;20038;-54
2023/07/28 11:42:48;;;;;;;0.00;0.00;;;23.00;99.90;;;;;;5035739;28;20071;-53
2023/07/28 11:45:15;;;;;;;0.00;0.00;;;23.00;99.90;;;;;;5034040;28;20506;-54
2023/07/28 11:48:08;;;;;;;0.00;0.00;;;22.80;99.90;;;;;;5034711;28;20045;-55
2023/07/28 11:50:42;;;;;;;0.00;0.00;;;22.90;99.90;;;;;;5035073;28;20143;-54
2023/07/28 11:53:09;;;;;;;0.00;0.00;;;22.80;99.90;;;;;;5042755;28;20417;-54
2023/07/28 11:55:38;;;;;;;0.00;0.00;;;22.80;99.90;;;;;;5036774;28;20091;-53
2023/07/28 11:58:08;;;;;;;0.00;0.00;;;22.80;99.90;;;;;;5043486;28;20033;-55
2023/07/28 12:00:39;;;;;;;0.00;0.00;;;22.80;99.90;;;;;;5035313;28;20706;-55
2023/07/28 12:03:10;;;;;;;0.00;0.00;;;22.80;99.90;;;;;;5037028;28;20045;-54
2023/07/28 12:05:37;;;;;;;0.00;0.00;;;24.50;99.90;;;;;;5043232;28;20544;-54
2023/07/28 12:08:03;;;;;;;0.00;0.00;;;23.00;99.90;;;;;;5041238;28;20125;-55
2023/07/28 12:10:31;;;;;;;0.00;0.00;;;23.10;99.90;;;;;;5043006;28;20116;-55
2023/07/28 12:12:57;;;;;;;0.00;0.00;;;23.20;99.90;;;;;;5041762;28;20551;-54
2023/07/28 12:15:31;;;;;;;0.00;0.00;;;23.20;99.90;;;;;;5033734;28;20091;-55
2023/07/28 12:18:11;;;;;;;0.00;0.00;;;23.30;99.90;;;;;;5042833;28;20076;-54
2023/07/28 12:20:38;;;;;;;0.00;0.00;;;23.60;99.90;;;;;;5044444;28;20026;-54
2023/07/28 12:23:04;;;;;;;0.00;0.00;;;23.60;99.90;;;;;;5046691;28;20102;-54
2023/07/28 12:25:30;;;;;;;0.00;0.00;;;23.60;99.90;;;;;;5042592;28;20143;-55
2023/07/28 12:27:56;;;;;;;0.00;0.00;;;23.70;99.90;;;;;;5042306;28;20489;-56
2023/07/28 12:30:21;;;;;;;0.00;0.00;;;23.80;99.90;;;;;;5040192;28;20046;-56
2023/07/28 12:32:47;;;;;;;0.00;0.00;;;23.60;99.90;;;;;;5042755;28;20033;-54
2023/07/28 12:35:13;;;;;;;0.00;0.00;;;23.80;99.90;;;;;;5041201;28;20362;-54
2023/07/28 12:37:39;;;;;;;0.00;0.00;;;23.80;99.90;;;;;;5044728;28;20619;-56
2023/07/28 12:40:06;;;;;;;0.00;0.00;;;23.90;99.90;;;;;;5042167;28;20033;-55
2023/07/28 12:42:32;;;;;;;0.00;0.00;;;23.80;99.90;;;;;;5041564;28;20481;-56
2023/07/28 12:44:57;;;;;;;0.00;0.00;;;23.90;99.90;;;;;;5041290;28;20520;-55
2023/07/28 12:47:23;;;;;;;0.00;0.00;;;24.00;99.90;;;;;;5038785;28;20037;-55